METAR Data
IDs: Format: Raw Decoded Include TAF

Data at: 2256 UTC 30 Jun 2022

Region: TOP
KATL 302252Z 21007KT 10SM SCT050TCU SCT070 BKN150 BKN250 29/22 A3012 RMK AO2 LTG DSNT SE SLP190 CB DSNT NW TCU W-NW T02890217 $

KBOS 302154Z 12008KT 10SM FEW055 SCT180 SCT250 24/11 A3010 RMK AO2 SLP193 T02440106

KBWI 302154Z VRB04KT 10SM FEW050 FEW070 FEW250 32/16 A3012 RMK AO2 SLP199 T03170156

KCLE 302251Z 20009G20KT 10SM FEW250 31/12 A3004 RMK AO2 SLP180 T03060122

KCLT 302252Z 11008KT 10SM FEW050 FEW080 BKN250 31/19 A3015 RMK SLP198 TCU DSNT SW T03110189

KCVG 302252Z 21004KT 10SM CLR 32/16 A3006 RMK AO2 SLP167 T03170161

KDCA 302252Z 17008KT 10SM SCT060 31/19 A3013 RMK AO2 SLP202 T03060189

KDEN 302253Z 21021G29KT 10SM SCT075 BKN120 BKN180 22/13 A3018 RMK AO2 PK WND 21037/2208 RAB2156E06 SLP143 P0000 T02220128

KDFW 302253Z 16010KT 10SM SCT090 SCT110 SCT250 36/16 A2990 RMK AO2 SLP116 T03610161

KDTW 302253Z 22012KT 10SM BKN250 32/11 A2999 RMK AO2 SLP152 T03170106 PNO

KEWR 302251Z 27009KT 10SM FEW070 FEW250 32/12 A3011 RMK AO2 SLP195 T03220122

KFLL 302153Z 14012KT 10SM FEW030 SCT075 SCT150 BKN250 31/24 A3009 RMK CB DSNT ALQDS MOV NW T03120244

KIAD 302252Z 16006KT 10SM FEW200 31/17 A3013 RMK AO2 SLP199 T03060167

KIAH 302253Z 10015KT 10SM BKN020 OVC250 27/22 A2997 RMK AO2 SLP147 T02720222

KJFK 302251Z 19014KT 10SM FEW070 FEW250 25/15 A3013 RMK AO2 SLP203 T02500150

KLAS 302156Z 23012G24KT 10SM FEW120 SCT200 39/04 A2988 RMK AO2 SLP085 T03940044

KLAX 302253Z 26013KT 10SM FEW150 23/16 A2997 RMK AO2 SLP146 T02280161

KLGA 302251Z 17009KT 10SM FEW070 SCT250 28/13 A3011 RMK AO2 SLP195 T02830133

KMCO 302253Z 05010KT 10SM FEW065 FEW090 SCT160 BKN210 BKN250 27/23 A3007 RMK AO2 LTG DSNT E AND SW RAE24 SLP181 P0000 T02670233

KMDW 302253Z 21016G26KT 10SM FEW070 BKN250 33/13 A2994 RMK AO2 PK WND 21026/2250 SLP127 T03280128

KMEM 302154Z 18006KT 10SM SCT046 BKN070 BKN250 35/21 A3001 RMK AO2 SLP158 CB NE MOV NW T03500206

KMIA 302253Z 14006KT 10SM FEW100 29/22 A3008 RMK AO2 SLP185 T02940222 $

KMSP 302253Z 33012KT 10SM FEW065 FEW100 SCT140 SCT180 BKN250 31/13 A2982 RMK AO2 SLP090 ACC DSNT NE-SE T03060133

KORD 302251Z 22012G23KT 10SM FEW180 BKN250 32/12 A2994 RMK AO2 PK WND 23026/2223 SLP130 T03170122

KPDX 302253Z 31007KT 10SM FEW030 FEW250 26/11 A3004 RMK AO2 SLP171 T02560106

KPHL 302154Z 22009KT 10SM FEW080 32/12 A3012 RMK AO2 SLP198 T03220122

KPHX 302251Z 26008KT 10SM FEW090 FEW140 FEW250 40/13 A2983 RMK AO2 SLP079 T04000128

KPIT 302251Z 21010KT 10SM FEW200 30/11 A3010 RMK AO2 SLP193 T03000111

KSAN 302251Z 30007KT 10SM FEW050 SCT200 24/17 A2998 RMK AO2 SLP152 T02390167

KSEA 302253Z 29012KT 9SM FEW040 SCT250 23/10 A3010 RMK AO2 SLP196 T02280100

KSFO 302156Z 29018G25KT 10SM FEW008 BKN014 16/09 A3006 RMK AO2 SLP180 T01610094

KSLC 302154Z 27007G16KT 240V310 10SM FEW085 SCT150 34/10 A2998 RMK AO2 SLP087 CB DSNT E-SE TCU DSNT S T03440100

KSTL 302251Z 23010KT 10SM FEW250 35/12 A2997 RMK AO2 SLP136 T03500122

KTPA 302253Z 20006KT 10SM FEW015 FEW032TCU SCT070 BKN220 32/22 A3006 RMK AO2 LTG DSNT N AND NE AND S TSE19 SLP178 CB DSNT N AND S TCU W T03170217